createdAt,value
2019-03-09T00:01:20.068Z,20.52
2019-03-09T00:03:49.488Z,26.75
2019-03-09T00:06:19.350Z,25.23
2019-03-09T00:08:48.742Z,23.12
2019-03-09T00:11:18.162Z,21.90
2019-03-09T00:13:47.680Z,23.73
2019-03-09T00:16:17.127Z,23.02
2019-03-09T00:18:46.825Z,30.02
2019-03-09T00:21:16.222Z,20.35
2019-03-09T00:24:07.337Z,23.95
2019-03-09T00:26:50.760Z,22.27
2019-03-09T00:29:39.117Z,19.73
2019-03-09T00:32:11.278Z,21.87
2019-03-09T00:34:40.965Z,19.02
2019-03-09T00:37:10.411Z,25.40
2019-03-09T00:39:39.827Z,22.47
2019-03-09T00:42:09.264Z,22.50
2019-03-09T00:44:38.652Z,23.05
2019-03-09T00:47:08.591Z,20.55
2019-03-09T00:49:38.008Z,17.30
2019-03-09T00:52:07.403Z,20.97
2019-03-09T00:54:36.803Z,15.38
2019-03-09T00:57:06.202Z,20.23
2019-03-09T00:59:35.643Z,23.05
2019-03-09T01:02:05.043Z,27.42
2019-03-09T01:04:34.470Z,26.00
2019-03-09T01:07:03.911Z,27.58
2019-03-09T01:09:33.267Z,26.53
2019-03-09T01:12:02.789Z,21.70
2019-03-09T01:14:32.195Z,25.00
2019-03-09T01:17:01.611Z,21.80
2019-03-09T01:19:31.041Z,21.07
2019-03-09T01:22:00.455Z,21.82
2019-03-09T01:24:29.854Z,22.37
2019-03-09T01:26:59.186Z,20.05
2019-03-09T01:29:28.669Z,21.73
2019-03-09T01:31:58.122Z,18.80
2019-03-09T01:34:27.565Z,21.50
2019-03-09T01:36:56.943Z,23.98
2019-03-09T01:39:26.484Z,22.00
2019-03-09T01:41:55.904Z,20.57
2019-03-09T01:44:25.375Z,22.75
2019-03-09T01:46:54.724Z,23.45
2019-03-09T01:49:24.148Z,25.10
2019-03-09T01:51:53.729Z,22.58
2019-03-09T01:54:23.118Z,13.80
2019-03-09T01:56:52.581Z,19.15
2019-03-09T01:59:21.981Z,19.75
2019-03-09T02:01:51.385Z,21.27
2019-03-09T02:04:20.819Z,22.87
2019-03-09T02:06:50.238Z,23.12
2019-03-09T02:09:19.955Z,21.80
2019-03-09T02:11:49.428Z,17.87
2019-03-09T02:14:18.802Z,26.12
2019-03-09T02:16:48.216Z,23.57
2019-03-09T02:19:17.633Z,18.77
2019-03-09T02:21:47.049Z,24.80
2019-03-09T02:24:16.588Z,21.95
2019-03-09T02:26:45.972Z,21.87
2019-03-09T02:29:15.406Z,20.60
2019-03-09T02:31:44.813Z,24.10
2019-03-09T02:34:14.261Z,20.82
2019-03-09T02:36:43.777Z,20.72
2019-03-09T02:39:21.017Z,20.77
2019-03-09T02:41:50.432Z,24.92
2019-03-09T02:44:20.140Z,21.85
2019-03-09T02:46:49.593Z,18.05
2019-03-09T02:49:18.986Z,22.07
2019-03-09T02:51:48.381Z,20.57
2019-03-09T02:54:17.763Z,19.42
2019-03-09T02:56:47.181Z,24.35
2019-03-09T02:59:16.568Z,19.70
2019-03-09T03:02:04.137Z,23.23
2019-03-09T03:04:33.560Z,17.75
2019-03-09T03:07:02.963Z,18.50
2019-03-09T03:09:32.896Z,20.08
2019-03-09T03:12:02.303Z,23.70
2019-03-09T03:14:31.678Z,19.65
2019-03-09T03:17:01.029Z,26.70
2019-03-09T03:19:30.472Z,25.30
2019-03-09T03:21:59.858Z,25.02
2019-03-09T03:24:29.272Z,22.82
2019-03-09T03:26:58.648Z,19.67
2019-03-09T03:29:28.114Z,18.98
2019-03-09T03:31:57.483Z,16.73
2019-03-09T03:34:26.985Z,22.05
2019-03-09T03:36:56.361Z,24.12
2019-03-09T03:39:25.794Z,21.25
2019-03-09T03:41:55.221Z,17.80
2019-03-09T03:44:24.920Z,20.45
2019-03-09T03:46:54.354Z,18.95
2019-03-09T03:49:25.337Z,19.62
2019-03-09T03:51:54.971Z,19.98
2019-03-09T03:54:24.362Z,17.07
2019-03-09T03:56:53.748Z,20.25
2019-03-09T03:59:23.149Z,23.32
2019-03-09T04:01:52.631Z,19.85
2019-03-09T04:04:22.158Z,22.65
2019-03-09T04:06:52.023Z,20.92
2019-03-09T04:09:22.237Z,17.65
2019-03-09T04:11:51.751Z,22.87
2019-03-09T04:14:21.423Z,24.45
2019-03-09T04:16:50.837Z,23.63
2019-03-09T04:19:20.251Z,23.60
2019-03-09T04:21:49.971Z,22.53
2019-03-09T04:24:19.380Z,23.20
2019-03-09T04:26:48.821Z,23.52
2019-03-09T04:29:18.231Z,23.67
2019-03-09T04:31:47.743Z,24.20
2019-03-09T04:34:17.161Z,22.27
2019-03-09T04:36:46.537Z,24.23
2019-03-09T04:39:15.971Z,19.20
2019-03-09T04:41:47.117Z,21.93
2019-03-09T04:44:16.564Z,22.10
2019-03-09T04:46:46.054Z,20.12
2019-03-09T04:49:15.491Z,19.67
2019-03-09T04:51:44.903Z,18.50
2019-03-09T04:54:14.345Z,19.42
2019-03-09T04:56:43.744Z,17.65
2019-03-09T04:59:13.118Z,23.07
2019-03-09T05:01:42.536Z,24.85
2019-03-09T05:04:48.597Z,20.82
2019-03-09T05:07:21.916Z,21.10
2019-03-09T05:10:33.196Z,28.55
2019-03-09T05:13:09.022Z,21.23
2019-03-09T05:15:38.351Z,25.83
2019-03-09T05:18:07.762Z,24.55
2019-03-09T05:20:37.212Z,21.10
2019-03-09T05:23:06.654Z,23.98
2019-03-09T05:25:36.076Z,21.85
2019-03-09T05:28:05.426Z,22.45
2019-03-09T05:30:39.257Z,21.75
2019-03-09T05:33:08.708Z,19.02
2019-03-09T05:35:38.103Z,21.60
2019-03-09T05:38:07.573Z,20.25
2019-03-09T05:40:36.987Z,22.17
2019-03-09T05:43:06.503Z,20.85
2019-03-09T05:45:35.923Z,21.02
2019-03-09T05:48:05.809Z,23.50
2019-03-09T05:50:35.200Z,22.63
2019-03-09T05:53:13.303Z,21.65
2019-03-09T05:55:42.730Z,24.60
2019-03-09T05:58:13.851Z,25.51
2019-03-09T06:00:43.747Z,20.80
2019-03-09T06:03:13.210Z,22.17
2019-03-09T06:05:44.929Z,20.72
2019-03-09T06:08:14.325Z,27.62
2019-03-09T06:10:43.744Z,26.75
2019-03-09T06:13:13.153Z,20.40
2019-03-09T06:15:42.696Z,22.65
2019-03-09T06:18:12.125Z,23.47
2019-03-09T06:20:41.669Z,19.87
2019-03-09T06:23:10.496Z,25.25
2019-03-09T06:25:40.028Z,23.87
2019-03-09T06:28:09.464Z,24.18
2019-03-09T06:30:38.870Z,22.22
2019-03-09T06:33:40.287Z,25.00
2019-03-09T06:36:43.124Z,28.00
2019-03-09T06:39:21.172Z,30.12
2019-03-09T06:42:08.192Z,38.17
2019-03-09T06:44:37.860Z,28.92
2019-03-09T06:47:07.320Z,26.02
2019-03-09T06:49:36.778Z,66.00
2019-03-09T06:52:06.220Z,67.75
2019-03-09T06:54:36.098Z,88.95
2019-03-09T06:57:13.616Z,85.97
2019-03-09T06:59:36.648Z,37.17
2019-03-09T07:02:06.141Z,30.35
2019-03-09T07:04:35.569Z,40.03
2019-03-09T07:07:05.015Z,25.68
2019-03-09T07:09:34.416Z,41.37
2019-03-09T07:12:03.874Z,77.80
2019-03-09T07:15:16.438Z,29.50
2019-03-09T07:17:45.940Z,38.28
2019-03-09T07:20:15.722Z,31.60
2019-03-09T07:22:45.198Z,44.30
2019-03-09T07:25:14.745Z,31.90
2019-03-09T07:27:44.283Z,26.35
2019-03-09T07:30:16.502Z,43.27
2019-03-09T07:32:45.940Z,21.77
2019-03-09T07:35:15.355Z,23.80
2019-03-09T07:37:44.759Z,17.73
2019-03-09T07:40:14.457Z,21.57
2019-03-09T07:42:43.865Z,24.10
2019-03-09T07:45:13.560Z,25.90
2019-03-09T07:47:43.071Z,23.00
2019-03-09T07:50:12.791Z,21.35
2019-03-09T07:52:42.494Z,20.90
2019-03-09T07:55:13.299Z,20.15
2019-03-09T07:57:42.988Z,19.23
2019-03-09T08:00:14.895Z,19.85
2019-03-09T08:02:44.280Z,21.12
2019-03-09T08:05:13.866Z,23.95
2019-03-09T08:07:43.331Z,20.23
2019-03-09T08:10:14.795Z,23.07
2019-03-09T08:12:44.379Z,18.10
2019-03-09T08:15:15.155Z,23.50
2019-03-09T08:17:44.733Z,23.35
2019-03-09T08:20:14.361Z,19.98
2019-03-09T08:22:43.889Z,17.98
2019-03-09T08:25:14.052Z,19.05
2019-03-09T08:27:43.457Z,20.67
2019-03-09T08:30:15.051Z,26.77
2019-03-09T08:32:44.384Z,19.60
2019-03-09T08:35:14.160Z,22.55
2019-03-09T08:37:43.609Z,23.30
2019-03-09T08:40:13.568Z,17.87
2019-03-09T08:42:43.080Z,23.00
2019-03-09T08:45:13.324Z,19.12
2019-03-09T08:47:51.557Z,20.32
2019-03-09T08:50:15.603Z,18.00
2019-03-09T08:52:44.958Z,18.20
2019-03-09T08:55:17.098Z,13.30
2019-03-09T08:57:46.497Z,14.13
2019-03-09T09:00:18.263Z,14.78
2019-03-09T09:02:47.652Z,18.75
2019-03-09T09:05:16.997Z,19.42
2019-03-09T09:07:46.522Z,19.32
2019-03-09T09:10:15.926Z,15.08
2019-03-09T09:12:45.776Z,13.22
2019-03-09T09:15:15.224Z,13.75
2019-03-09T09:17:44.373Z,17.27
2019-03-09T09:20:15.912Z,11.30
2019-03-09T09:22:44.777Z,12.30
2019-03-09T09:25:14.356Z,9.87
2019-03-09T09:27:43.904Z,12.07
2019-03-09T09:30:22.093Z,13.50
2019-03-09T09:32:50.993Z,9.70
2019-03-09T09:35:19.941Z,10.40
2019-03-09T09:37:49.535Z,12.03
2019-03-09T09:40:19.110Z,11.48
2019-03-09T09:42:48.027Z,10.68
2019-03-09T09:45:16.890Z,10.38
2019-03-09T09:47:46.421Z,10.35
2019-03-09T09:50:15.297Z,13.38
2019-03-09T09:52:44.817Z,17.98
2019-03-09T09:55:14.118Z,13.05
2019-03-09T09:57:42.920Z,10.15
2019-03-09T10:00:15.310Z,13.88
2019-03-09T10:02:44.968Z,14.05
2019-03-09T10:05:14.127Z,13.22
2019-03-09T10:07:43.566Z,14.25
2019-03-09T10:10:14.733Z,13.83
2019-03-09T10:12:43.520Z,10.08
2019-03-09T10:15:13.555Z,11.55
2019-03-09T10:17:42.534Z,9.48
2019-03-09T10:20:12.514Z,11.45
2019-03-09T10:22:41.452Z,9.65
2019-03-09T10:25:10.422Z,11.45
2019-03-09T10:27:39.930Z,12.88
2019-03-09T10:30:11.228Z,10.25
2019-03-09T10:32:40.665Z,9.38
2019-03-09T10:35:10.148Z,12.78
2019-03-09T10:37:39.615Z,14.03
2019-03-09T10:40:09.191Z,10.50
2019-03-09T10:42:38.004Z,11.60
2019-03-09T10:45:07.185Z,10.33
2019-03-09T10:47:36.099Z,9.73
2019-03-09T10:50:05.720Z,10.32
2019-03-09T10:52:35.161Z,12.13
2019-03-09T10:55:05.021Z,10.60
2019-03-09T10:57:34.546Z,12.28
2019-03-09T11:00:03.480Z,10.93
2019-03-09T11:02:33.020Z,11.88
2019-03-09T11:05:02.754Z,9.75
2019-03-09T11:07:31.676Z,9.93
2019-03-09T11:10:01.103Z,10.95
2019-03-09T11:12:30.667Z,15.58
2019-03-09T11:15:00.148Z,15.13
2019-03-09T11:17:29.611Z,13.08
2019-03-09T11:19:59.220Z,9.20
2019-03-09T11:22:28.732Z,10.85
2019-03-09T11:25:03.290Z,14.20
2019-03-09T11:27:29.356Z,10.30
2019-03-09T11:29:58.813Z,16.10
2019-03-09T11:32:28.278Z,9.50
2019-03-09T11:34:57.750Z,15.08
2019-03-09T11:37:27.231Z,6.45
2019-03-09T11:39:56.156Z,7.95
2019-03-09T11:42:25.641Z,10.90
2019-03-09T11:44:55.245Z,7.33
2019-03-09T11:47:24.714Z,11.43
2019-03-09T11:49:54.215Z,11.48
2019-03-09T11:52:23.642Z,10.37
2019-03-09T11:54:53.211Z,5.85
2019-03-09T11:57:22.096Z,10.97
2019-03-09T11:59:51.550Z,11.45
2019-03-09T12:02:21.147Z,7.78
2019-03-09T12:04:50.574Z,8.75
2019-03-09T12:07:19.442Z,10.30
2019-03-09T12:09:48.975Z,6.87
2019-03-09T12:12:18.594Z,7.30
2019-03-09T12:14:47.488Z,7.53
2019-03-09T12:17:16.996Z,7.22
2019-03-09T12:19:46.558Z,9.83
2019-03-09T12:22:16.248Z,7.78
2019-03-09T12:24:50.798Z,11.13
2019-03-09T12:27:20.372Z,6.92
2019-03-09T12:29:49.225Z,8.90
2019-03-09T12:32:18.771Z,7.67
2019-03-09T12:34:48.216Z,22.90
2019-03-09T12:37:17.607Z,6.37
2019-03-09T12:39:46.437Z,8.23
2019-03-09T12:42:15.857Z,6.28
2019-03-09T12:44:45.296Z,5.58
2019-03-09T12:47:14.640Z,5.55
2019-03-09T12:49:44.064Z,9.58
2019-03-09T12:52:13.642Z,6.57
2019-03-09T12:54:43.100Z,7.28
2019-03-09T12:57:12.571Z,9.08
2019-03-09T12:59:42.024Z,7.97
2019-03-09T13:02:11.471Z,13.53
2019-03-09T13:04:40.992Z,12.13
2019-03-09T13:07:10.848Z,9.73
2019-03-09T13:09:40.262Z,12.80
2019-03-09T13:12:09.688Z,13.32
2019-03-09T13:14:39.270Z,13.45
2019-03-09T13:17:08.622Z,11.40
2019-03-09T13:19:38.096Z,7.00
2019-03-09T13:22:07.579Z,8.88
2019-03-09T13:24:37.028Z,14.53
2019-03-09T13:27:06.478Z,12.10
2019-03-09T13:29:35.859Z,10.32
2019-03-09T13:32:05.367Z,6.40
2019-03-09T13:34:34.135Z,9.08
2019-03-09T13:37:03.597Z,11.63
2019-03-09T13:39:33.058Z,5.87
2019-03-09T13:42:02.529Z,4.87
2019-03-09T13:44:32.048Z,4.05
2019-03-09T13:47:01.498Z,4.53
2019-03-09T13:49:30.963Z,4.92
2019-03-09T13:52:00.438Z,6.47
2019-03-09T13:54:29.845Z,6.20
2019-03-09T13:56:59.295Z,6.12
2019-03-09T13:59:28.770Z,8.95
2019-03-09T14:01:58.476Z,9.33
2019-03-09T14:04:28.130Z,4.55
2019-03-09T14:06:57.670Z,6.97
2019-03-09T14:09:27.173Z,9.28
2019-03-09T14:11:56.601Z,5.47
2019-03-09T14:14:26.019Z,8.70
2019-03-09T14:16:55.694Z,5.78
2019-03-09T14:19:24.471Z,7.92
2019-03-09T14:21:53.987Z,8.05
2019-03-09T14:24:22.790Z,6.85
2019-03-09T14:26:52.253Z,8.68
2019-03-09T14:29:21.777Z,12.25
2019-03-09T14:31:51.236Z,7.12
2019-03-09T14:34:20.623Z,11.30
2019-03-09T14:36:50.157Z,11.25
2019-03-09T14:39:19.646Z,11.08
2019-03-09T14:42:08.195Z,9.98
2019-03-09T14:44:37.018Z,8.15
2019-03-09T14:47:06.490Z,14.10
2019-03-09T14:49:35.944Z,10.40
2019-03-09T14:52:05.421Z,10.72
2019-03-09T14:54:34.867Z,10.80
2019-03-09T14:57:03.651Z,5.05
2019-03-09T14:59:32.498Z,8.58
2019-03-09T15:02:01.919Z,5.83
2019-03-09T15:04:31.443Z,4.65
2019-03-09T15:07:06.552Z,4.93
2019-03-09T15:09:36.124Z,4.60
2019-03-09T15:12:05.654Z,5.50
2019-03-09T15:14:35.153Z,4.65
2019-03-09T15:17:04.592Z,16.23
2019-03-09T15:19:33.975Z,3.25
2019-03-09T15:22:03.412Z,3.27
2019-03-09T15:24:32.860Z,5.10
2019-03-09T15:27:02.349Z,6.97
2019-03-09T15:29:32.850Z,5.55
2019-03-09T15:32:02.481Z,6.37
2019-03-09T15:34:32.035Z,6.75
2019-03-09T15:37:01.468Z,5.37
2019-03-09T15:39:30.890Z,5.53
2019-03-09T15:42:00.300Z,8.25
2019-03-09T15:44:29.741Z,8.87
2019-03-09T15:46:59.215Z,6.47
2019-03-09T15:49:28.655Z,9.08
2019-03-09T15:51:58.087Z,8.60
2019-03-09T15:54:27.552Z,9.60
2019-03-09T15:56:56.944Z,9.15
2019-03-09T15:59:26.344Z,6.80
2019-03-09T16:01:55.777Z,6.28
2019-03-09T16:04:25.241Z,11.63
2019-03-09T16:06:54.705Z,4.73
2019-03-09T16:09:24.160Z,5.40
2019-03-09T16:11:53.587Z,3.83
2019-03-09T16:14:23.058Z,6.30
2019-03-09T16:16:52.568Z,9.75
2019-03-09T16:19:21.966Z,10.95
2019-03-09T16:21:51.427Z,11.65
2019-03-09T16:24:20.906Z,8.03
2019-03-09T16:26:50.348Z,19.10
2019-03-09T16:29:19.748Z,25.30
2019-03-09T16:31:49.216Z,8.53
2019-03-09T16:34:18.622Z,11.90
2019-03-09T16:36:48.028Z,8.00
2019-03-09T16:39:17.438Z,8.03
2019-03-09T16:41:46.823Z,8.18
2019-03-09T16:44:16.284Z,10.85
2019-03-09T16:46:48.033Z,8.57
2019-03-09T16:49:16.721Z,9.85
2019-03-09T16:51:46.159Z,10.25
2019-03-09T16:54:15.578Z,14.40
2019-03-09T16:56:44.995Z,27.82
2019-03-09T16:59:14.411Z,23.50
2019-03-09T17:01:43.841Z,19.80
2019-03-09T17:04:13.641Z,15.63
2019-03-09T17:06:43.070Z,16.93
2019-03-09T17:09:12.537Z,18.43
2019-03-09T17:11:41.974Z,18.07
2019-03-09T17:14:11.395Z,17.17
2019-03-09T17:16:40.828Z,13.13
2019-03-09T17:19:10.267Z,12.60
2019-03-09T17:21:39.758Z,11.30
2019-03-09T17:24:09.167Z,9.00
2019-03-09T17:26:38.667Z,16.57
2019-03-09T17:29:08.091Z,11.60
2019-03-09T17:31:37.976Z,10.68
2019-03-09T17:34:07.429Z,12.03
2019-03-09T17:36:36.889Z,9.75
2019-03-09T17:39:08.749Z,12.98
2019-03-09T17:41:38.212Z,27.80
2019-03-09T17:44:07.658Z,8.13
2019-03-09T17:46:37.187Z,16.70
2019-03-09T17:49:06.657Z,8.08
2019-03-09T17:51:36.103Z,9.88
2019-03-09T17:54:05.807Z,10.45
2019-03-09T17:56:35.211Z,8.03
2019-03-09T17:59:04.627Z,12.80
2019-03-09T18:01:34.133Z,10.78
2019-03-09T18:04:04.633Z,10.10
2019-03-09T18:06:34.086Z,42.60
2019-03-09T18:09:04.439Z,9.93
2019-03-09T18:11:34.110Z,12.37
2019-03-09T18:14:07.214Z,11.30
2019-03-09T18:16:34.897Z,14.07
2019-03-09T18:19:04.303Z,15.40
2019-03-09T18:21:33.903Z,14.83
2019-03-09T18:24:03.301Z,12.47
2019-03-09T18:26:32.811Z,9.53
2019-03-09T18:29:02.668Z,11.27
2019-03-09T18:31:32.059Z,9.60
2019-03-09T18:34:01.546Z,11.40
2019-03-09T18:36:31.037Z,10.15
2019-03-09T18:39:00.486Z,11.43
2019-03-09T18:41:29.939Z,14.65
2019-03-09T18:43:59.487Z,11.05
2019-03-09T18:46:28.947Z,10.25
2019-03-09T18:48:58.429Z,11.20
2019-03-09T18:51:27.919Z,11.78
2019-03-09T18:53:57.579Z,11.57
2019-03-09T18:56:27.000Z,15.25
2019-03-09T18:58:56.516Z,12.30
2019-03-09T19:01:25.961Z,15.35
2019-03-09T19:03:55.471Z,14.57
2019-03-09T19:06:24.926Z,17.85
2019-03-09T19:08:54.417Z,29.45
2019-03-09T19:11:23.862Z,20.25
2019-03-09T19:13:53.299Z,17.60
2019-03-09T19:16:22.842Z,16.17
2019-03-09T19:18:52.369Z,17.30
2019-03-09T19:21:21.839Z,20.10
2019-03-09T19:23:51.298Z,16.40
2019-03-09T19:26:20.688Z,25.95
2019-03-09T19:28:50.253Z,23.75
2019-03-09T19:31:19.754Z,20.40
2019-03-09T19:33:49.229Z,34.95
2019-03-09T19:36:18.669Z,29.63
2019-03-09T19:38:48.222Z,41.48
2019-03-09T19:41:17.662Z,48.33
2019-03-09T19:43:47.200Z,135.75
2019-03-09T19:46:16.695Z,135.22
2019-03-09T19:48:46.153Z,126.58
2019-03-09T19:51:15.642Z,123.13
2019-03-09T19:53:45.103Z,103.80
2019-03-09T19:56:14.633Z,271.32
2019-03-09T19:58:44.076Z,275.62
2019-03-09T20:01:13.519Z,116.00
2019-03-09T20:03:42.928Z,89.75
2019-03-09T20:06:12.413Z,100.70
2019-03-09T20:08:41.884Z,72.90
2019-03-09T20:11:11.348Z,289.17
2019-03-09T20:13:40.830Z,141.77
2019-03-09T20:16:10.396Z,64.67
2019-03-09T20:18:39.960Z,65.25
2019-03-09T20:21:09.394Z,78.65
2019-03-09T20:23:38.888Z,69.17
2019-03-09T20:26:08.322Z,124.00
2019-03-09T20:28:37.750Z,72.10
2019-03-09T20:31:07.191Z,58.73
2019-03-09T20:33:36.752Z,66.92
2019-03-09T20:36:06.264Z,49.83
2019-03-09T20:38:35.789Z,54.10
2019-03-09T20:41:05.131Z,56.18
2019-03-09T20:43:34.642Z,76.00
2019-03-09T20:46:04.448Z,36.93
2019-03-09T20:48:33.979Z,30.17
2019-03-09T20:51:03.368Z,42.67
2019-03-09T20:53:32.921Z,136.88
2019-03-09T20:56:02.458Z,28.77
2019-03-09T20:58:31.861Z,47.08
2019-03-09T21:01:20.378Z,24.82
2019-03-09T21:03:49.808Z,50.38
2019-03-09T21:06:19.255Z,20.05
2019-03-09T21:08:49.303Z,74.83
2019-03-09T21:11:18.944Z,23.90
2019-03-09T21:13:48.395Z,21.52
2019-03-09T21:16:17.849Z,21.20
2019-03-09T21:18:47.249Z,21.50
2019-03-09T21:21:16.730Z,21.02
2019-03-09T21:23:46.235Z,24.12
2019-03-09T21:26:15.662Z,13.95
2019-03-09T21:28:45.153Z,18.27
2019-03-09T21:31:14.574Z,25.37
2019-03-09T21:33:44.003Z,18.85
2019-03-09T21:36:13.424Z,17.10
2019-03-09T21:38:42.281Z,14.65
2019-03-09T21:41:11.742Z,18.23
2019-03-09T21:43:41.215Z,14.33
2019-03-09T21:46:10.663Z,16.02
2019-03-09T21:48:40.130Z,13.20
2019-03-09T21:51:09.518Z,15.68
2019-03-09T21:53:38.967Z,16.23
2019-03-09T21:56:08.378Z,13.78
2019-03-09T21:58:37.844Z,15.72
2019-03-09T22:01:07.251Z,14.20
2019-03-09T22:03:36.760Z,14.70
2019-03-09T22:06:06.648Z,13.83
2019-03-09T22:08:36.205Z,12.58
2019-03-09T22:11:05.680Z,16.62
2019-03-09T22:13:35.084Z,13.68
2019-03-09T22:16:04.516Z,10.03
2019-03-09T22:18:33.975Z,10.90
2019-03-09T22:21:03.409Z,11.73
2019-03-09T22:23:43.513Z,10.10
2019-03-09T22:26:03.931Z,11.22
2019-03-09T22:28:33.418Z,9.23
2019-03-09T22:31:02.842Z,9.23
2019-03-09T22:33:32.279Z,11.73
2019-03-09T22:36:01.747Z,11.70
2019-03-09T22:38:31.153Z,12.15
2019-03-09T22:41:00.565Z,18.35
2019-03-09T22:43:29.998Z,10.18
2019-03-09T22:45:59.396Z,10.32
2019-03-09T22:48:28.807Z,9.38
2019-03-09T22:50:58.245Z,8.03
2019-03-09T22:53:27.666Z,8.95
2019-03-09T22:55:57.140Z,9.53
2019-03-09T22:58:26.552Z,9.03
2019-03-09T23:00:56.007Z,9.78
2019-03-09T23:03:25.427Z,10.15
2019-03-09T23:05:54.972Z,11.23
2019-03-09T23:08:24.461Z,10.55
2019-03-09T23:10:53.893Z,10.55
2019-03-09T23:13:23.489Z,11.83
2019-03-09T23:15:52.890Z,10.88
2019-03-09T23:18:22.302Z,13.45
2019-03-09T23:20:51.743Z,11.15
2019-03-09T23:23:21.150Z,11.27
2019-03-09T23:25:50.562Z,11.68
2019-03-09T23:28:19.958Z,15.53
2019-03-09T23:30:49.380Z,11.60
2019-03-09T23:33:18.832Z,13.00
2019-03-09T23:35:48.502Z,10.95
2019-03-09T23:38:17.978Z,13.50
2019-03-09T23:40:47.392Z,11.63
2019-03-09T23:43:16.795Z,14.90
2019-03-09T23:45:46.186Z,14.98
2019-03-09T23:48:15.636Z,14.75
2019-03-09T23:50:45.068Z,12.60
2019-03-09T23:53:14.517Z,12.10
2019-03-09T23:55:43.984Z,15.63
2019-03-09T23:58:13.464Z,15.35
